Latest Weather Observations for Casey (Skiway South)*

IDT60801

Issued at 11:31 am EDT Tuesday 3 March 2015 (issued every 30 minutes, with the page automatically refreshed every 10 minutes)

About weather observations | Map of weather stations | Latest weather observations for ANT | Other Formats
Station Details ID: 300060 Name: CASEY SKIWAY SOUTH Lat: -66.28 Lon: 110.76 Height: 390.0 m
Data from the previous 72 hours. | See also: Recent months for locations in Antarctica
Date/Time
EDT
Temp
°C
App
Temp
°C
Dew
Point
Rel
Hum
%
Delta-T
°C
Wind Press
QNH
hPa
Press
MSL
hPa
Rain
since 9 am
mm
Dir
 
Spd
km/h
Gust
km/h
Spd
kts
Gust
kts
03/10:30am -3.3 -7.5 -9.7 61 1.6 S 6 9 3 5 980.2 - -
03/10:00am -3.5 -7.3 -9.5 63 1.5 SW 4 9 2 5 980.0 - -
03/09:30am -3.8 -8.5 -9.0 67 1.3 S 9 15 5 8 979.8 - -
03/09:00am -4.3 -8.4 -8.4 73 1.0 S 6 11 3 6 979.4 - -
03/08:30am -4.1 -12.4 -8.6 71 1.1 W 28 32 15 17 979.2 - -
03/08:00am -4.4 -14.0 -8.3 74 0.9 W 35 43 19 23 979.0 - -
03/07:30am -4.5 -14.5 -8.6 73 1.0 W 37 50 20 27 978.8 - -
03/07:00am -3.8 -12.4 -8.3 71 1.1 W 30 37 16 20 978.6 - -
03/06:30am -2.9 -7.9 -8.5 65 1.5 SSW 11 22 6 12 979.0 - -
03/06:00am -3.0 -7.1 -8.2 67 1.4 N 6 20 3 11 979.0 - -
03/05:30am -4.5 -10.1 -6.6 85 0.4 N 15 24 8 13 979.0 - -
03/04:30am -4.8 -11.7 -5.9 92 0.1 N 22 33 12 18 979.0 - -
03/04:00am -5.2 -11.7 -6.2 93 0.1 N 20 24 11 13 978.8 - -
03/03:30am -4.9 -11.4 -5.7 94 0.1 N 20 24 11 13 978.6 - -
03/03:00am -4.8 -11.3 -5.6 94 0.1 NNW 20 24 11 13 978.9 - -
03/02:30am -4.6 -11.0 -5.4 94 0.1 NNW 20 22 11 12 978.9 - -
03/02:00am -4.7 -10.2 -5.8 92 0.1 NNW 15 17 8 9 978.9 - -
03/01:30am -4.4 -10.9 -6.1 88 0.3 WNW 20 22 11 12 978.9 - -
03/01:00am -4.2 -11.5 -6.5 84 0.5 WNW 24 28 13 15 978.6 - -
03/12:30am -3.7 -11.5 -7.1 77 0.9 WNW 26 30 14 16 978.8 - -
03/12:00am -3.7 -11.9 -7.3 76 0.9 W 28 32 15 17 978.9 - -
 
Date/Time
EDT
Temp
°C
App
Temp
°C
Dew
Point
Rel
Hum
%
Delta-T
°C
Wind Press
QNH
hPa
Press
MSL
hPa
Rain
since 9 am
mm
Dir
 
Spd
km/h
Gust
km/h
Spd
kts
Gust
kts
02/11:30pm -3.4 -13.3 -7.4 74 1.0 W 37 41 20 22 978.6 - -
02/11:00pm -3.3 -12.8 -7.1 75 1.0 W 35 39 19 21 978.4 - -
02/10:56pm -3.4 -12.5 -7.4 74 1.0 W 33 39 18 21 978.7 - -
02/10:30pm -3.0 -7.1 -7.0 74 1.1 WSW 7 9 4 5 979.0 - -
02/10:00pm -3.1 -9.2 -7.6 71 1.2 SW 17 20 9 11 978.9 - -
02/09:30pm -3.2 -10.3 -8.4 67 1.4 SW 22 26 12 14 978.4 - -
02/09:00pm -2.9 -9.4 -8.5 65 1.5 WSW 19 22 10 12 978.7 - -
02/08:30pm -2.0 -8.1 -8.3 62 1.7 WSW 17 24 9 13 978.7 - -
02/08:00pm -2.7 -9.3 -8.9 62 1.6 WSW 19 26 10 14 978.4 - -
02/07:30pm -3.0 -8.5 -10.3 57 1.9 W 13 15 7 8 978.2 - -
02/07:00pm -3.4 -10.3 -10.9 56 1.9 WNW 20 24 11 13 978.5 - -
02/06:30pm -4.0 -10.3 -10.0 63 1.5 NW 17 20 9 11 979.0 - -
02/06:00pm -3.4 -10.6 -9.8 61 1.6 NNW 22 24 12 13 979.0 - -
02/05:30pm -3.9 -10.5 -9.5 65 1.4 NNW 19 20 10 11 979.7 - -
02/05:00pm -4.2 -9.3 -9.2 68 1.2 NNW 11 15 6 8 980.2 - -
02/04:30pm -4.2 -9.7 -9.2 68 1.2 N 13 17 7 9 980.6 - -
02/04:00pm -4.5 -9.6 -9.3 69 1.1 NNW 11 13 6 7 980.9 - -
02/03:30pm -5.0 -10.5 -10.0 68 1.1 NNW 13 15 7 8 981.2 - -
02/03:00pm -5.1 -10.7 -11.0 63 1.3 NNW 13 17 7 9 981.4 - -
02/02:30pm -5.9 -12.3 -11.8 63 1.3 NW 17 19 9 10 981.8 - -
02/02:00pm -7.3 -14.7 -12.7 65 1.0 NW 22 26 12 14 982.3 - -
02/01:30pm -7.8 -15.6 -13.0 66 1.0 NNW 24 26 13 14 982.4 - -
02/01:00pm -8.2 -16.1 -13.6 65 1.0 NNW 24 28 13 15 982.7 - -
02/12:30pm -8.6 -16.8 -13.8 66 0.9 NNW 26 30 14 16 983.1 - -
02/12:00pm -8.9 -17.6 -14.3 65 0.9 NW 28 28 15 15 983.4 - -
02/11:30am -8.7 -16.6 -14.8 61 1.1 NW 24 28 13 15 983.6 - -
02/11:00am -10.0 -17.6 -15.1 66 0.8 NW 22 24 12 13 984.1 - -
02/10:30am -9.7 -16.9 -15.4 63 0.9 NW 20 20 11 11 984.3 - -
02/10:00am -8.4 -15.5 -13.8 65 0.9 WNW 20 24 11 13 984.6 - -
02/09:30am -13.1 -20.8 -18.3 65 0.6 WNW 22 28 12 15 984.8 - -
02/09:00am -8.8 -14.2 -14.7 62 1.0 NW 11 13 6 7 984.9 - -
02/08:30am -9.6 -13.7 -15.1 64 0.9 WSW 4 6 2 3 985.0 - -
02/08:00am -9.6 -14.3 -15.3 63 0.9 W 7 9 4 5 985.1 - -
02/07:30am -10.4 -16.3 -15.9 64 0.8 NW 13 17 7 9 985.0 - -
02/07:00am -10.1 -16.3 -15.2 66 0.8 WNW 15 17 8 9 985.0 - -
02/06:30am -11.5 -17.4 -16.0 69 0.6 NW 13 19 7 10 984.6 - -
02/06:00am -11.4 -19.4 -16.1 68 0.6 W 24 32 13 17 984.4 - -
02/05:30am -11.6 -20.7 -15.9 70 0.5 WSW 30 32 16 17 983.8 - -
02/05:00am -11.1 -20.8 -15.5 70 0.6 WSW 33 37 18 20 983.5 - -
02/04:30am -11.5 -21.0 -15.7 71 0.5 WSW 32 37 17 20 983.4 - -
02/04:00am -11.1 -20.8 -15.3 71 0.6 WSW 33 39 18 21 983.1 - -
02/03:30am -10.9 -21.3 -15.1 71 0.6 WSW 37 41 20 22 982.8 - -
02/03:00am -11.1 -20.8 -15.3 71 0.6 WSW 33 37 18 20 982.7 - -
02/02:30am -11.1 -20.6 -15.3 71 0.6 WSW 32 33 17 18 982.6 - -
02/02:00am -10.9 -20.5 -14.8 73 0.5 WSW 33 37 18 20 982.2 - -
02/01:30am -11.0 -20.1 -14.7 74 0.5 SW 30 33 16 18 981.9 - -
02/01:00am -10.7 -20.1 -14.1 76 0.4 SW 32 37 17 20 981.4 - -
02/12:30am -11.0 -20.4 -14.2 77 0.4 SW 32 39 17 21 981.2 - -
02/12:00am -10.5 -19.4 -12.0 89 0.0 SW 30 37 16 20 980.8 - -
 
Date/Time
EDT
Temp
°C
App
Temp
°C
Dew
Point
Rel
Hum
%
Delta-T
°C
Wind Press
QNH
hPa
Press
MSL
hPa
Rain
since 9 am
mm
Dir
 
Spd
km/h
Gust
km/h
Spd
kts
Gust
kts
01/11:30pm -9.8 -19.0 -11.1 90 0.0 SW 32 41 17 22 980.2 - -
01/11:00pm -9.8 -19.2 -11.3 89 0.1 SW 33 39 18 21 980.3 - -
01/10:30pm -10.5 -19.5 -13.1 81 0.3 SW 30 35 16 19 980.1 - -
01/10:00pm -9.5 -18.0 -12.1 81 0.3 SW 28 35 15 19 979.6 - -
01/09:30pm -9.2 -16.9 -11.5 83 0.3 SW 24 28 13 15 979.6 - -
01/09:00pm -8.4 -16.4 -10.6 84 0.3 SW 26 32 14 17 979.2 - -
01/08:30pm -8.5 -16.1 -10.0 89 0.1 SSW 24 26 13 14 978.7 - -
01/08:00pm -8.1 -15.7 -9.3 91 0.0 SSW 24 28 13 15 978.0 - -
01/07:30pm -7.6 -14.4 -8.9 90 0.1 S 20 26 11 14 978.1 - -
01/07:00pm -7.9 -15.4 -9.1 91 0.1 SSW 24 28 13 15 977.8 - -
01/06:30pm -7.9 -15.0 -8.8 93 0.0 SSW 22 24 12 13 977.3 - -
01/06:00pm -8.3 -15.5 -9.2 93 0.0 SSW 22 28 12 15 977.0 - -
01/05:30pm -8.3 -15.1 -9.1 94 -0.1 SSW 20 24 11 13 977.0 - -
01/05:00pm -8.1 -13.5 -8.9 94 -0.1 SSW 13 15 7 8 977.2 - -
01/04:30pm -7.5 -13.7 -8.7 91 0.1 SW 17 19 9 10 976.9 - -
01/04:00pm -7.2 -13.4 -9.4 84 0.3 SSW 17 19 9 10 976.9 - -
01/03:30pm -6.2 -12.8 -9.7 76 0.7 SW 19 20 10 11 976.4 - -
01/03:00pm -6.4 -13.1 -9.9 76 0.7 SW 19 22 10 12 976.5 - -
01/02:30pm -6.6 -12.9 -10.1 76 0.7 SW 17 20 9 11 976.2 - -
01/02:00pm -7.1 -13.4 -10.4 77 0.6 WSW 17 19 9 10 976.6 - -
01/01:30pm -7.2 -13.5 -10.7 76 0.6 WSW 17 19 9 10 976.5 - -
01/01:00pm -8.3 -14.7 -11.6 77 0.5 WSW 17 19 9 10 976.4 - -
01/12:30pm -8.3 -14.7 -11.6 77 0.5 WSW 17 20 9 11 976.3 - -
01/12:00pm -9.7 -16.5 -12.6 79 0.4 W 19 20 10 11 976.3 - -
01/11:30am -10.4 -16.9 -13.5 78 0.4 W 17 19 9 10 976.3 - -
01/11:00am -10.6 -17.1 -13.4 80 0.3 W 17 19 9 10 976.3 - -
01/10:30am -11.5 -18.6 -14.2 80 0.3 W 20 22 11 12 976.3 - -
01/10:00am -11.9 -19.0 -14.3 82 0.2 W 20 22 11 12 976.5 - -
01/09:30am -12.5 -19.5 -14.9 82 0.2 W 19 19 10 10 976.5 - -
01/09:00am -12.7 -19.7 -15.0 83 0.1 W 19 20 10 11 976.5 - -
01/08:30am -11.7 -18.6 -13.7 85 0.1 W 19 20 10 11 976.6 - -
01/08:00am -12.1 -17.9 -14.5 82 0.2 W 13 15 7 8 976.6 - -
01/07:30am -11.4 -17.5 -13.7 83 0.2 W 15 17 8 9 976.6 - -
01/07:00am -11.4 -17.5 -13.7 83 0.2 W 15 17 8 9 976.6 - -
01/06:30am -10.3 -16.3 -12.0 87 0.1 W 15 15 8 8 976.6 - -
01/06:00am -10.1 -16.1 -11.1 92 -0.1 W 15 17 8 9 976.7 - -
01/05:30am -9.3 -14.5 -10.1 94 -0.1 W 11 13 6 7 976.7 - -
01/05:00am -9.2 -14.3 -10.0 94 -0.1 W 11 13 6 7 976.8 - -
01/04:30am -10.2 -15.8 -11.1 93 -0.1 WSW 13 13 7 7 976.8 - -
01/04:00am -10.5 -16.1 -11.5 92 -0.1 WSW 13 13 7 7 976.9 - -
01/03:30am -9.8 -15.0 -11.0 91 0.0 WSW 11 13 6 7 977.1 - -
01/03:00am -9.8 -15.1 -11.5 87 0.1 WSW 11 13 6 7 977.1 - -
01/02:30am -9.9 -15.2 -11.8 86 0.2 WSW 11 13 6 7 977.1 - -
01/02:00am -9.8 -15.4 -11.7 86 0.2 WSW 13 15 7 8 977.2 - -
01/01:30am -9.7 -15.0 -11.7 85 0.2 WSW 11 13 6 7 977.4 - -
01/01:00am -8.4 -13.6 -10.3 86 0.2 WSW 11 13 6 7 977.6 - -
01/12:30am -8.6 -13.4 -10.7 85 0.2 WSW 9 11 5 6 977.8 - -
01/12:00am -8.3 -12.7 -10.8 82 0.4 WSW 7 9 4 5 978.0 - -
 
Date/Time
EDT
Temp
°C
App
Temp
°C
Dew
Point
Rel
Hum
%
Delta-T
°C
Wind Press
QNH
hPa
Press
MSL
hPa
Rain
since 9 am
mm
Dir
 
Spd
km/h
Gust
km/h
Spd
kts
Gust
kts
28/11:30pm -8.1 -12.5 -10.9 80 0.4 SW 7 7 4 4 978.2 - -
28/11:00pm -7.2 -12.0 -10.0 80 0.5 SW 9 9 5 5 978.4 - -

Other Formats:

Comma delimited format used in spreadsheet applications
http://www.bom.gov.au/fwo/IDT60803/IDT60803.89809.axf

JavaScript Object Notation format (JSON) in row-major order
http://www.bom.gov.au/fwo/IDT60803/IDT60803.89809.json